sensor_id;sensor_type;location;lat;lon;timestamp;temperature;humidity
17701;DHT22;8969;48.576;12.580;2022-12-18T00:00:28;-2.70;99.90
17701;DHT22;8969;48.576;12.580;2022-12-18T00:02:56;-2.60;99.90
17701;DHT22;8969;48.576;12.580;2022-12-18T00:05:25;-2.70;99.90
17701;DHT22;8969;48.576;12.580;2022-12-18T00:07:53;-2.60;99.90
17701;DHT22;8969;48.576;12.580;2022-12-18T00:10:21;-2.60;99.90
17701;DHT22;8969;48.576;12.580;2022-12-18T00:12:49;-2.60;99.90
17701;DHT22;8969;48.576;12.580;2022-12-18T00:15:19;-2.60;99.90
17701;DHT22;8969;48.576;12.580;2022-12-18T00:17:47;-2.50;99.90
17701;DHT22;8969;48.576;12.580;2022-12-18T00:20:15;-2.60;99.90
17701;DHT22;8969;48.576;12.580;2022-12-18T00:22:48;-2.50;99.90
17701;DHT22;8969;48.576;12.580;2022-12-18T00:25:16;-2.60;99.90
17701;DHT22;8969;48.576;12.580;2022-12-18T00:27:45;-2.60;99.90
17701;DHT22;8969;48.576;12.580;2022-12-18T00:30:14;-2.60;99.90
17701;DHT22;8969;48.576;12.580;2022-12-18T00:32:44;-2.60;99.90
17701;DHT22;8969;48.576;12.580;2022-12-18T00:35:13;-2.70;99.90
17701;DHT22;8969;48.576;12.580;2022-12-18T00:37:41;-2.60;99.90
17701;DHT22;8969;48.576;12.580;2022-12-18T00:40:12;-2.60;99.90
17701;DHT22;8969;48.576;12.580;2022-12-18T00:42:42;-2.60;99.90
17701;DHT22;8969;48.576;12.580;2022-12-18T00:45:25;-2.60;99.90
17701;DHT22;8969;48.576;12.580;2022-12-18T00:47:56;-2.70;99.90
17701;DHT22;8969;48.576;12.580;2022-12-18T00:50:25;-2.70;99.90
17701;DHT22;8969;48.576;12.580;2022-12-18T00:52:54;-2.70;99.90
17701;DHT22;8969;48.576;12.580;2022-12-18T00:55:22;-2.70;99.90
17701;DHT22;8969;48.576;12.580;2022-12-18T00:57:51;-2.70;99.90
17701;DHT22;8969;48.576;12.580;2022-12-18T01:00:19;-2.60;99.90
17701;DHT22;8969;48.576;12.580;2022-12-18T01:02:47;-2.60;99.90
17701;DHT22;8969;48.576;12.580;2022-12-18T01:05:18;-2.50;99.90
17701;DHT22;8969;48.576;12.580;2022-12-18T01:07:47;-2.60;99.90
17701;DHT22;8969;48.576;12.580;2022-12-18T01:10:15;-2.50;99.90
17701;DHT22;8969;48.576;12.580;2022-12-18T01:12:43;-2.60;99.90
17701;DHT22;8969;48.576;12.580;2022-12-18T01:15:13;-2.50;99.90
17701;DHT22;8969;48.576;12.580;2022-12-18T01:17:42;-2.50;99.90
17701;DHT22;8969;48.576;12.580;2022-12-18T01:20:12;-2.50;99.90
17701;DHT22;8969;48.576;12.580;2022-12-18T01:22:41;-2.50;99.90
17701;DHT22;8969;48.576;12.580;2022-12-18T01:25:10;-2.50;99.90
17701;DHT22;8969;48.576;12.580;2022-12-18T01:27:38;-2.50;99.90
17701;DHT22;8969;48.576;12.580;2022-12-18T01:30:08;-2.60;99.90
17701;DHT22;8969;48.576;12.580;2022-12-18T01:32:37;-2.50;99.90
17701;DHT22;8969;48.576;12.580;2022-12-18T01:35:06;-2.50;99.90
17701;DHT22;8969;48.576;12.580;2022-12-18T01:37:34;-2.40;99.90
17701;DHT22;8969;48.576;12.580;2022-12-18T01:40:05;-2.40;99.90
17701;DHT22;8969;48.576;12.580;2022-12-18T01:42:34;-2.50;99.90
17701;DHT22;8969;48.576;12.580;2022-12-18T01:45:22;-2.50;99.90
17701;DHT22;8969;48.576;12.580;2022-12-18T01:47:53;-2.60;99.90
17701;DHT22;8969;48.576;12.580;2022-12-18T01:50:24;-2.50;99.90
17701;DHT22;8969;48.576;12.580;2022-12-18T01:52:55;-2.50;99.90
17701;DHT22;8969;48.576;12.580;2022-12-18T01:55:27;-2.60;99.90
17701;DHT22;8969;48.576;12.580;2022-12-18T01:57:58;-2.50;99.90
17701;DHT22;8969;48.576;12.580;2022-12-18T02:00:28;-2.50;99.90
17701;DHT22;8969;48.576;12.580;2022-12-18T02:02:56;-2.50;99.90
17701;DHT22;8969;48.576;12.580;2022-12-18T02:05:34;-2.50;99.90
17701;DHT22;8969;48.576;12.580;2022-12-18T02:08:09;-2.50;99.90
17701;DHT22;8969;48.576;12.580;2022-12-18T02:10:46;-2.50;99.90
17701;DHT22;8969;48.576;12.580;2022-12-18T02:13:20;-2.50;99.90
17701;DHT22;8969;48.576;12.580;2022-12-18T02:15:56;-2.50;99.90
17701;DHT22;8969;48.576;12.580;2022-12-18T02:18:28;-2.40;99.90
17701;DHT22;8969;48.576;12.580;2022-12-18T02:21:06;-2.30;99.90
17701;DHT22;8969;48.576;12.580;2022-12-18T02:23:49;-2.40;99.90
17701;DHT22;8969;48.576;12.580;2022-12-18T02:26:26;-2.50;99.90
17701;DHT22;8969;48.576;12.580;2022-12-18T02:28:58;-2.50;99.90
17701;DHT22;8969;48.576;12.580;2022-12-18T02:31:34;-2.50;99.90
17701;DHT22;8969;48.576;12.580;2022-12-18T02:34:04;-2.50;99.90
17701;DHT22;8969;48.576;12.580;2022-12-18T02:36:40;-2.50;99.90
17701;DHT22;8969;48.576;12.580;2022-12-18T02:39:11;-2.50;99.90
17701;DHT22;8969;48.576;12.580;2022-12-18T02:41:51;-2.40;99.90
17701;DHT22;8969;48.576;12.580;2022-12-18T02:44:21;-2.40;99.90
17701;DHT22;8969;48.576;12.580;2022-12-18T02:46:53;-2.50;99.90
17701;DHT22;8969;48.576;12.580;2022-12-18T02:49:30;-2.50;99.90
17701;DHT22;8969;48.576;12.580;2022-12-18T02:52:07;-2.50;99.90
17701;DHT22;8969;48.576;12.580;2022-12-18T02:54:45;-2.50;99.90
17701;DHT22;8969;48.576;12.580;2022-12-18T02:57:24;-2.50;99.90
17701;DHT22;8969;48.576;12.580;2022-12-18T03:00:03;-2.40;99.90
17701;DHT22;8969;48.576;12.580;2022-12-18T03:02:39;-2.50;99.90
17701;DHT22;8969;48.576;12.580;2022-12-18T03:05:13;-2.50;99.90
17701;DHT22;8969;48.576;12.580;2022-12-18T03:07:47;-2.50;99.90
17701;DHT22;8969;48.576;12.580;2022-12-18T03:10:20;-2.50;99.90
17701;DHT22;8969;48.576;12.580;2022-12-18T03:12:57;-2.50;99.90
17701;DHT22;8969;48.576;12.580;2022-12-18T03:15:31;-2.60;99.90
17701;DHT22;8969;48.576;12.580;2022-12-18T03:18:10;-2.50;99.90
17701;DHT22;8969;48.576;12.580;2022-12-18T03:20:41;-2.50;99.90
17701;DHT22;8969;48.576;12.580;2022-12-18T03:23:15;-2.50;99.90
17701;DHT22;8969;48.576;12.580;2022-12-18T03:25:51;-2.40;99.90
17701;DHT22;8969;48.576;12.580;2022-12-18T03:28:25;-2.50;99.90
17701;DHT22;8969;48.576;12.580;2022-12-18T03:31:00;-2.60;99.90
17701;DHT22;8969;48.576;12.580;2022-12-18T03:33:35;-2.50;99.90
17701;DHT22;8969;48.576;12.580;2022-12-18T03:36:07;-2.50;99.90
17701;DHT22;8969;48.576;12.580;2022-12-18T03:38:35;-2.50;99.90
17701;DHT22;8969;48.576;12.580;2022-12-18T03:41:12;-2.50;99.90
17701;DHT22;8969;48.576;12.580;2022-12-18T03:44:12;-2.50;99.90
17701;DHT22;8969;48.576;12.580;2022-12-18T03:46:50;-2.50;99.90
17701;DHT22;8969;48.576;12.580;2022-12-18T03:49:26;-2.50;99.90
17701;DHT22;8969;48.576;12.580;2022-12-18T03:52:01;-2.50;99.90
17701;DHT22;8969;48.576;12.580;2022-12-18T03:54:34;-2.40;99.90
17701;DHT22;8969;48.576;12.580;2022-12-18T03:57:14;-2.50;99.90
17701;DHT22;8969;48.576;12.580;2022-12-18T03:59:46;-2.50;99.90
17701;DHT22;8969;48.576;12.580;2022-12-18T04:02:17;-2.50;99.90
17701;DHT22;8969;48.576;12.580;2022-12-18T04:04:47;-2.70;99.90
17701;DHT22;8969;48.576;12.580;2022-12-18T04:07:19;-2.60;99.90
17701;DHT22;8969;48.576;12.580;2022-12-18T04:09:49;-2.60;99.90
17701;DHT22;8969;48.576;12.580;2022-12-18T04:12:18;-2.60;99.90
17701;DHT22;8969;48.576;12.580;2022-12-18T04:14:49;-2.50;99.90
17701;DHT22;8969;48.576;12.580;2022-12-18T04:17:17;-2.50;99.90
17701;DHT22;8969;48.576;12.580;2022-12-18T04:19:46;-2.50;99.90
17701;DHT22;8969;48.576;12.580;2022-12-18T04:22:16;-2.50;99.90
17701;DHT22;8969;48.576;12.580;2022-12-18T04:24:48;-2.50;99.90
17701;DHT22;8969;48.576;12.580;2022-12-18T04:27:26;-2.50;99.90
17701;DHT22;8969;48.576;12.580;2022-12-18T04:29:58;-2.50;99.90
17701;DHT22;8969;48.576;12.580;2022-12-18T04:32:26;-2.50;99.90
17701;DHT22;8969;48.576;12.580;2022-12-18T04:34:54;-2.40;99.90
17701;DHT22;8969;48.576;12.580;2022-12-18T04:37:23;-2.40;99.90
17701;DHT22;8969;48.576;12.580;2022-12-18T04:39:51;-2.40;99.90
17701;DHT22;8969;48.576;12.580;2022-12-18T04:42:28;-2.60;99.90
17701;DHT22;8969;48.576;12.580;2022-12-18T04:44:58;-2.60;99.90
17701;DHT22;8969;48.576;12.580;2022-12-18T04:47:27;-2.70;99.90
17701;DHT22;8969;48.576;12.580;2022-12-18T04:49:55;-2.70;99.90
17701;DHT22;8969;48.576;12.580;2022-12-18T04:52:24;-2.70;99.90
17701;DHT22;8969;48.576;12.580;2022-12-18T04:54:52;-2.60;99.90
17701;DHT22;8969;48.576;12.580;2022-12-18T04:57:20;-2.60;99.90
17701;DHT22;8969;48.576;12.580;2022-12-18T04:59:48;-2.60;99.90
17701;DHT22;8969;48.576;12.580;2022-12-18T05:02:18;-2.60;99.90
17701;DHT22;8969;48.576;12.580;2022-12-18T05:04:47;-2.60;99.90
17701;DHT22;8969;48.576;12.580;2022-12-18T05:07:15;-2.40;99.90
17701;DHT22;8969;48.576;12.580;2022-12-18T05:09:43;-2.50;99.90
17701;DHT22;8969;48.576;12.580;2022-12-18T05:12:11;-2.50;99.90
17701;DHT22;8969;48.576;12.580;2022-12-18T05:14:39;-2.40;99.90
17701;DHT22;8969;48.576;12.580;2022-12-18T05:17:07;-2.40;99.90
17701;DHT22;8969;48.576;12.580;2022-12-18T05:19:37;-2.50;99.90
17701;DHT22;8969;48.576;12.580;2022-12-18T05:22:05;-2.50;99.90
17701;DHT22;8969;48.576;12.580;2022-12-18T05:24:33;-2.50;99.90
17701;DHT22;8969;48.576;12.580;2022-12-18T05:27:03;-2.50;99.90
17701;DHT22;8969;48.576;12.580;2022-12-18T05:29:32;-2.60;99.90
17701;DHT22;8969;48.576;12.580;2022-12-18T05:32:00;-2.60;99.90
17701;DHT22;8969;48.576;12.580;2022-12-18T05:34:28;-2.50;99.90
17701;DHT22;8969;48.576;12.580;2022-12-18T05:36:57;-2.40;99.90
17701;DHT22;8969;48.576;12.580;2022-12-18T05:39:29;-2.40;99.90
17701;DHT22;8969;48.576;12.580;2022-12-18T05:41:57;-2.40;99.90
17701;DHT22;8969;48.576;12.580;2022-12-18T05:44:25;-2.40;99.90
17701;DHT22;8969;48.576;12.580;2022-12-18T05:46:54;-2.40;99.90
17701;DHT22;8969;48.576;12.580;2022-12-18T05:49:22;-2.40;99.90
17701;DHT22;8969;48.576;12.580;2022-12-18T05:51:51;-2.40;99.90
17701;DHT22;8969;48.576;12.580;2022-12-18T05:54:21;-2.40;99.90
17701;DHT22;8969;48.576;12.580;2022-12-18T05:56:49;-2.40;99.90
17701;DHT22;8969;48.576;12.580;2022-12-18T05:59:17;-2.40;99.90
17701;DHT22;8969;48.576;12.580;2022-12-18T06:01:46;-2.50;99.90
17701;DHT22;8969;48.576;12.580;2022-12-18T06:04:14;-2.50;99.90
17701;DHT22;8969;48.576;12.580;2022-12-18T06:06:43;-2.50;99.90
17701;DHT22;8969;48.576;12.580;2022-12-18T06:09:11;-2.50;99.90
17701;DHT22;8969;48.576;12.580;2022-12-18T06:11:41;-2.50;99.90
17701;DHT22;8969;48.576;12.580;2022-12-18T06:14:09;-2.50;99.90
17701;DHT22;8969;48.576;12.580;2022-12-18T06:16:38;-2.50;99.90
17701;DHT22;8969;48.576;12.580;2022-12-18T06:19:07;-2.50;99.90
17701;DHT22;8969;48.576;12.580;2022-12-18T06:21:35;-2.50;99.90
17701;DHT22;8969;48.576;12.580;2022-12-18T06:24:04;-2.50;99.90
17701;DHT22;8969;48.576;12.580;2022-12-18T06:26:32;-2.60;99.90
17701;DHT22;8969;48.576;12.580;2022-12-18T06:29:02;-2.60;99.90
17701;DHT22;8969;48.576;12.580;2022-12-18T06:31:31;-2.50;99.90
17701;DHT22;8969;48.576;12.580;2022-12-18T06:33:59;-2.50;99.90
17701;DHT22;8969;48.576;12.580;2022-12-18T06:36:27;-2.50;99.90
17701;DHT22;8969;48.576;12.580;2022-12-18T06:38:56;-2.60;99.90
17701;DHT22;8969;48.576;12.580;2022-12-18T06:41:25;-2.60;99.90
17701;DHT22;8969;48.576;12.580;2022-12-18T06:43:53;-2.60;99.90
17701;DHT22;8969;48.576;12.580;2022-12-18T06:46:27;-2.60;99.90
17701;DHT22;8969;48.576;12.580;2022-12-18T06:48:55;-2.60;99.90
17701;DHT22;8969;48.576;12.580;2022-12-18T06:51:24;-2.60;99.90
17701;DHT22;8969;48.576;12.580;2022-12-18T06:53:52;-2.50;99.90
17701;DHT22;8969;48.576;12.580;2022-12-18T06:56:20;-2.60;99.90
17701;DHT22;8969;48.576;12.580;2022-12-18T06:58:49;-2.70;99.90
17701;DHT22;8969;48.576;12.580;2022-12-18T07:01:18;-2.60;99.90
17701;DHT22;8969;48.576;12.580;2022-12-18T07:03:51;-2.60;99.90
17701;DHT22;8969;48.576;12.580;2022-12-18T07:06:21;-2.60;99.90
17701;DHT22;8969;48.576;12.580;2022-12-18T07:08:51;-2.60;99.90
17701;DHT22;8969;48.576;12.580;2022-12-18T07:11:19;-2.60;99.90
17701;DHT22;8969;48.576;12.580;2022-12-18T07:13:50;-2.60;99.90
17701;DHT22;8969;48.576;12.580;2022-12-18T07:16:19;-2.50;99.90
17701;DHT22;8969;48.576;12.580;2022-12-18T07:18:53;-2.50;99.90
17701;DHT22;8969;48.576;12.580;2022-12-18T07:21:23;-2.60;99.90
17701;DHT22;8969;48.576;12.580;2022-12-18T07:23:52;-2.60;99.90
17701;DHT22;8969;48.576;12.580;2022-12-18T07:26:21;-2.70;99.90
17701;DHT22;8969;48.576;12.580;2022-12-18T07:28:49;-2.60;99.90
17701;DHT22;8969;48.576;12.580;2022-12-18T07:31:20;-2.60;99.90
17701;DHT22;8969;48.576;12.580;2022-12-18T07:33:49;-2.70;99.90
17701;DHT22;8969;48.576;12.580;2022-12-18T07:36:19;-2.80;99.90
17701;DHT22;8969;48.576;12.580;2022-12-18T07:38:47;-2.70;99.90
17701;DHT22;8969;48.576;12.580;2022-12-18T07:41:17;-2.70;99.90
17701;DHT22;8969;48.576;12.580;2022-12-18T07:43:45;-2.80;99.90
17701;DHT22;8969;48.576;12.580;2022-12-18T07:46:15;-2.80;99.90
17701;DHT22;8969;48.576;12.580;2022-12-18T07:48:43;-2.90;99.90
17701;DHT22;8969;48.576;12.580;2022-12-18T07:51:16;-2.80;99.90
17701;DHT22;8969;48.576;12.580;2022-12-18T07:53:46;-2.80;99.90
17701;DHT22;8969;48.576;12.580;2022-12-18T07:56:18;-2.80;99.90
17701;DHT22;8969;48.576;12.580;2022-12-18T07:58:57;-2.70;99.90
17701;DHT22;8969;48.576;12.580;2022-12-18T08:01:26;-2.60;99.90
17701;DHT22;8969;48.576;12.580;2022-12-18T08:03:56;-2.50;99.90
17701;DHT22;8969;48.576;12.580;2022-12-18T08:06:25;-2.60;99.90
17701;DHT22;8969;48.576;12.580;2022-12-18T08:08:56;-2.70;99.90
17701;DHT22;8969;48.576;12.580;2022-12-18T08:11:26;-2.70;99.90
17701;DHT22;8969;48.576;12.580;2022-12-18T08:13:55;-2.50;99.90
17701;DHT22;8969;48.576;12.580;2022-12-18T08:16:23;-2.70;99.90
17701;DHT22;8969;48.576;12.580;2022-12-18T08:18:53;-2.70;99.90
17701;DHT22;8969;48.576;12.580;2022-12-18T08:21:22;-2.60;99.90
17701;DHT22;8969;48.576;12.580;2022-12-18T08:23:52;-2.50;99.90
17701;DHT22;8969;48.576;12.580;2022-12-18T08:26:23;-2.50;99.90
17701;DHT22;8969;48.576;12.580;2022-12-18T08:28:54;-2.50;99.90
17701;DHT22;8969;48.576;12.580;2022-12-18T08:31:23;-2.40;99.90
17701;DHT22;8969;48.576;12.580;2022-12-18T08:33:52;-2.40;99.90
17701;DHT22;8969;48.576;12.580;2022-12-18T08:36:23;-2.50;99.90
17701;DHT22;8969;48.576;12.580;2022-12-18T08:38:53;-2.50;99.90
17701;DHT22;8969;48.576;12.580;2022-12-18T08:41:23;-2.50;99.90
17701;DHT22;8969;48.576;12.580;2022-12-18T08:43:51;-2.50;99.90
17701;DHT22;8969;48.576;12.580;2022-12-18T08:46:38;-2.50;99.90
17701;DHT22;8969;48.576;12.580;2022-12-18T08:49:07;-2.60;99.90
17701;DHT22;8969;48.576;12.580;2022-12-18T08:51:36;-2.70;99.90
17701;DHT22;8969;48.576;12.580;2022-12-18T08:54:05;-2.50;99.90
17701;DHT22;8969;48.576;12.580;2022-12-18T08:56:35;-2.50;99.90
17701;DHT22;8969;48.576;12.580;2022-12-18T08:59:24;-2.40;99.90
17701;DHT22;8969;48.576;12.580;2022-12-18T09:01:59;-2.30;99.90
17701;DHT22;8969;48.576;12.580;2022-12-18T09:04:28;-2.30;99.90
17701;DHT22;8969;48.576;12.580;2022-12-18T09:06:56;-2.10;99.90
17701;DHT22;8969;48.576;12.580;2022-12-18T09:09:24;-2.10;99.90
17701;DHT22;8969;48.576;12.580;2022-12-18T09:11:54;-2.20;99.90
17701;DHT22;8969;48.576;12.580;2022-12-18T09:14:22;-2.10;99.90
17701;DHT22;8969;48.576;12.580;2022-12-18T09:16:50;-2.10;99.90
17701;DHT22;8969;48.576;12.580;2022-12-18T09:19:21;-2.10;99.90
17701;DHT22;8969;48.576;12.580;2022-12-18T09:21:50;-2.10;99.90
17701;DHT22;8969;48.576;12.580;2022-12-18T09:24:18;-2.20;99.90
17701;DHT22;8969;48.576;12.580;2022-12-18T09:26:55;-2.00;99.90
17701;DHT22;8969;48.576;12.580;2022-12-18T09:29:24;-1.90;99.90
17701;DHT22;8969;48.576;12.580;2022-12-18T09:31:53;-1.90;99.90
17701;DHT22;8969;48.576;12.580;2022-12-18T09:34:21;-1.90;99.90
17701;DHT22;8969;48.576;12.580;2022-12-18T09:36:50;-2.10;99.90
17701;DHT22;8969;48.576;12.580;2022-12-18T09:39:19;-2.00;99.90
17701;DHT22;8969;48.576;12.580;2022-12-18T09:41:51;-2.00;99.90
17701;DHT22;8969;48.576;12.580;2022-12-18T09:44:26;-1.90;99.90
17701;DHT22;8969;48.576;12.580;2022-12-18T09:47:02;-1.80;99.90
17701;DHT22;8969;48.576;12.580;2022-12-18T09:49:33;-1.70;99.90
17701;DHT22;8969;48.576;12.580;2022-12-18T09:52:05;-1.90;99.90
17701;DHT22;8969;48.576;12.580;2022-12-18T09:54:39;-1.80;99.90
17701;DHT22;8969;48.576;12.580;2022-12-18T09:57:12;-1.60;99.90
17701;DHT22;8969;48.576;12.580;2022-12-18T09:59:47;-1.60;99.90
17701;DHT22;8969;48.576;12.580;2022-12-18T10:02:19;-1.90;99.90
17701;DHT22;8969;48.576;12.580;2022-12-18T10:05:03;-1.60;99.90
17701;DHT22;8969;48.576;12.580;2022-12-18T10:07:43;-1.50;99.90
17701;DHT22;8969;48.576;12.580;2022-12-18T10:10:27;-1.50;99.90
17701;DHT22;8969;48.576;12.580;2022-12-18T10:13:05;-1.40;99.90
17701;DHT22;8969;48.576;12.580;2022-12-18T10:15:43;-1.20;99.90
17701;DHT22;8969;48.576;12.580;2022-12-18T10:18:22;-1.20;99.90
17701;DHT22;8969;48.576;12.580;2022-12-18T10:20:55;-1.20;99.90
17701;DHT22;8969;48.576;12.580;2022-12-18T10:23:28;-1.10;99.90
17701;DHT22;8969;48.576;12.580;2022-12-18T10:26:03;-1.10;99.90
17701;DHT22;8969;48.576;12.580;2022-12-18T10:28:33;-1.00;99.90
17701;DHT22;8969;48.576;12.580;2022-12-18T10:31:06;-1.20;99.90
17701;DHT22;8969;48.576;12.580;2022-12-18T10:33:35;-1.30;99.90
17701;DHT22;8969;48.576;12.580;2022-12-18T10:36:04;-1.30;99.90
17701;DHT22;8969;48.576;12.580;2022-12-18T10:38:33;-1.50;99.90
17701;DHT22;8969;48.576;12.580;2022-12-18T10:41:03;-1.50;99.90
17701;DHT22;8969;48.576;12.580;2022-12-18T10:43:34;-1.60;99.90
17701;DHT22;8969;48.576;12.580;2022-12-18T10:46:12;-1.40;99.90
17701;DHT22;8969;48.576;12.580;2022-12-18T10:48:53;-1.50;99.90
17701;DHT22;8969;48.576;12.580;2022-12-18T10:51:24;-1.50;99.90
17701;DHT22;8969;48.576;12.580;2022-12-18T10:54:16;-1.40;99.90
17701;DHT22;8969;48.576;12.580;2022-12-18T10:56:45;-1.20;99.90
17701;DHT22;8969;48.576;12.580;2022-12-18T10:59:16;-1.20;99.90
17701;DHT22;8969;48.576;12.580;2022-12-18T11:01:50;-1.20;99.90
17701;DHT22;8969;48.576;12.580;2022-12-18T11:04:50;-1.30;99.90
17701;DHT22;8969;48.576;12.580;2022-12-18T11:07:19;-1.50;99.90
17701;DHT22;8969;48.576;12.580;2022-12-18T11:10:03;-1.60;99.90
17701;DHT22;8969;48.576;12.580;2022-12-18T11:12:31;-1.70;99.90
17701;DHT22;8969;48.576;12.580;2022-12-18T11:15:00;-1.70;99.90
17701;DHT22;8969;48.576;12.580;2022-12-18T11:17:32;-1.80;99.90
17701;DHT22;8969;48.576;12.580;2022-12-18T11:20:03;-1.90;99.90
17701;DHT22;8969;48.576;12.580;2022-12-18T11:22:35;-1.60;99.90
17701;DHT22;8969;48.576;12.580;2022-12-18T11:25:16;-1.70;99.90
17701;DHT22;8969;48.576;12.580;2022-12-18T11:28:02;-1.70;99.90
17701;DHT22;8969;48.576;12.580;2022-12-18T11:30:31;-1.60;99.90
17701;DHT22;8969;48.576;12.580;2022-12-18T11:33:04;-1.60;99.90
17701;DHT22;8969;48.576;12.580;2022-12-18T11:35:42;-1.40;99.90
17701;DHT22;8969;48.576;12.580;2022-12-18T11:38:18;-1.40;99.90
17701;DHT22;8969;48.576;12.580;2022-12-18T11:40:55;-1.50;99.90
17701;DHT22;8969;48.576;12.580;2022-12-18T11:43:29;-1.40;99.90
17701;DHT22;8969;48.576;12.580;2022-12-18T11:46:02;-1.50;99.90
17701;DHT22;8969;48.576;12.580;2022-12-18T11:48:37;-1.40;99.90
17701;DHT22;8969;48.576;12.580;2022-12-18T11:51:12;-1.20;99.90
17701;DHT22;8969;48.576;12.580;2022-12-18T11:53:45;-1.10;99.90
17701;DHT22;8969;48.576;12.580;2022-12-18T11:56:28;-0.90;99.90
17701;DHT22;8969;48.576;12.580;2022-12-18T11:59:04;-0.90;99.90
17701;DHT22;8969;48.576;12.580;2022-12-18T12:01:44;-1.00;99.90
17701;DHT22;8969;48.576;12.580;2022-12-18T12:04:41;-1.20;99.90
17701;DHT22;8969;48.576;12.580;2022-12-18T12:07:21;-1.10;99.90
17701;DHT22;8969;48.576;12.580;2022-12-18T12:09:59;-1.10;99.90
17701;DHT22;8969;48.576;12.580;2022-12-18T12:12:39;-1.10;99.90
17701;DHT22;8969;48.576;12.580;2022-12-18T12:15:24;-1.30;99.90
17701;DHT22;8969;48.576;12.580;2022-12-18T12:18:00;-1.00;99.90
17701;DHT22;8969;48.576;12.580;2022-12-18T12:20:49;-0.90;99.90
17701;DHT22;8969;48.576;12.580;2022-12-18T12:23:26;-0.80;99.90
17701;DHT22;8969;48.576;12.580;2022-12-18T12:26:01;-0.90;99.90
17701;DHT22;8969;48.576;12.580;2022-12-18T12:28:51;-0.80;99.90
17701;DHT22;8969;48.576;12.580;2022-12-18T12:31:33;-0.80;99.90
17701;DHT22;8969;48.576;12.580;2022-12-18T12:34:10;-0.80;99.90
17701;DHT22;8969;48.576;12.580;2022-12-18T12:36:51;-0.80;99.90
17701;DHT22;8969;48.576;12.580;2022-12-18T12:39:23;-0.90;99.90
17701;DHT22;8969;48.576;12.580;2022-12-18T12:41:55;-0.90;99.90
17701;DHT22;8969;48.576;12.580;2022-12-18T12:44:51;-1.00;99.90
17701;DHT22;8969;48.576;12.580;2022-12-18T12:47:26;-0.90;99.90
17701;DHT22;8969;48.576;12.580;2022-12-18T12:49:57;-0.90;99.90
17701;DHT22;8969;48.576;12.580;2022-12-18T12:52:32;-0.90;99.90
17701;DHT22;8969;48.576;12.580;2022-12-18T12:55:06;-1.00;99.90
17701;DHT22;8969;48.576;12.580;2022-12-18T12:58:00;-1.10;99.90
17701;DHT22;8969;48.576;12.580;2022-12-18T13:00:37;-1.10;99.90
17701;DHT22;8969;48.576;12.580;2022-12-18T13:03:13;-1.10;99.90
17701;DHT22;8969;48.576;12.580;2022-12-18T13:05:49;-1.10;99.90
17701;DHT22;8969;48.576;12.580;2022-12-18T13:08:27;-1.20;99.90
17701;DHT22;8969;48.576;12.580;2022-12-18T13:10:59;-1.50;99.90
17701;DHT22;8969;48.576;12.580;2022-12-18T13:13:50;-1.60;99.90
17701;DHT22;8969;48.576;12.580;2022-12-18T13:16:22;-1.50;99.90
17701;DHT22;8969;48.576;12.580;2022-12-18T13:18:51;-1.50;99.90
17701;DHT22;8969;48.576;12.580;2022-12-18T13:21:23;-1.60;99.90
17701;DHT22;8969;48.576;12.580;2022-12-18T13:23:55;-1.50;99.90
17701;DHT22;8969;48.576;12.580;2022-12-18T13:26:31;-1.50;99.90
17701;DHT22;8969;48.576;12.580;2022-12-18T13:29:03;-1.50;99.90
17701;DHT22;8969;48.576;12.580;2022-12-18T13:34:29;-1.60;99.90
17701;DHT22;8969;48.576;12.580;2022-12-18T13:43:27;-1.50;99.90
17701;DHT22;8969;48.576;12.580;2022-12-18T13:46:16;-1.50;99.90
17701;DHT22;8969;48.576;12.580;2022-12-18T13:48:56;-1.50;99.90
17701;DHT22;8969;48.576;12.580;2022-12-18T13:51:26;-1.50;99.90
17701;DHT22;8969;48.576;12.580;2022-12-18T13:53:58;-1.50;99.90
17701;DHT22;8969;48.576;12.580;2022-12-18T13:56:31;-1.50;99.90
17701;DHT22;8969;48.576;12.580;2022-12-18T13:59:13;-1.60;99.90
17701;DHT22;8969;48.576;12.580;2022-12-18T14:01:45;-1.60;99.90
17701;DHT22;8969;48.576;12.580;2022-12-18T14:04:26;-1.60;99.90
17701;DHT22;8969;48.576;12.580;2022-12-18T14:06:57;-1.70;99.90
17701;DHT22;8969;48.576;12.580;2022-12-18T14:09:29;-1.70;99.90
17701;DHT22;8969;48.576;12.580;2022-12-18T14:12:00;-1.70;99.90
17701;DHT22;8969;48.576;12.580;2022-12-18T14:14:49;-1.70;99.90
17701;DHT22;8969;48.576;12.580;2022-12-18T14:17:22;-1.70;99.90
17701;DHT22;8969;48.576;12.580;2022-12-18T14:19:51;-1.70;99.90
17701;DHT22;8969;48.576;12.580;2022-12-18T14:22:21;-1.70;99.90
17701;DHT22;8969;48.576;12.580;2022-12-18T14:25:10;-1.70;99.90
17701;DHT22;8969;48.576;12.580;2022-12-18T14:27:45;-1.80;99.90
17701;DHT22;8969;48.576;12.580;2022-12-18T14:30:24;-1.90;99.90
17701;DHT22;8969;48.576;12.580;2022-12-18T14:33:01;-1.90;99.90
17701;DHT22;8969;48.576;12.580;2022-12-18T14:35:30;-1.90;99.90
17701;DHT22;8969;48.576;12.580;2022-12-18T14:38:17;-1.90;99.90
17701;DHT22;8969;48.576;12.580;2022-12-18T14:40:47;-2.00;99.90
17701;DHT22;8969;48.576;12.580;2022-12-18T14:43:17;-2.00;99.90
17701;DHT22;8969;48.576;12.580;2022-12-18T14:45:45;-2.10;99.90
17701;DHT22;8969;48.576;12.580;2022-12-18T14:48:16;-2.10;99.90
17701;DHT22;8969;48.576;12.580;2022-12-18T14:51:00;-2.10;99.90
17701;DHT22;8969;48.576;12.580;2022-12-18T14:53:37;-2.20;99.90
17701;DHT22;8969;48.576;12.580;2022-12-18T14:56:15;-2.20;99.90
17701;DHT22;8969;48.576;12.580;2022-12-18T14:58:47;-2.20;99.90
17701;DHT22;8969;48.576;12.580;2022-12-18T15:01:24;-2.30;99.90
17701;DHT22;8969;48.576;12.580;2022-12-18T15:03:54;-2.30;99.90
17701;DHT22;8969;48.576;12.580;2022-12-18T15:06:31;-2.30;99.90
17701;DHT22;8969;48.576;12.580;2022-12-18T15:09:04;-2.40;99.90
17701;DHT22;8969;48.576;12.580;2022-12-18T15:11:46;-2.40;99.90
17701;DHT22;8969;48.576;12.580;2022-12-18T15:14:38;-2.40;99.90
17701;DHT22;8969;48.576;12.580;2022-12-18T15:17:15;-2.50;99.90
17701;DHT22;8969;48.576;12.580;2022-12-18T15:19:45;-2.50;99.90
17701;DHT22;8969;48.576;12.580;2022-12-18T15:22:20;-2.50;99.90
17701;DHT22;8969;48.576;12.580;2022-12-18T15:24:49;-2.40;99.90
17701;DHT22;8969;48.576;12.580;2022-12-18T15:27:23;-2.50;99.90
17701;DHT22;8969;48.576;12.580;2022-12-18T15:30:20;-2.50;99.90
17701;DHT22;8969;48.576;12.580;2022-12-18T15:32:49;-2.60;99.90
17701;DHT22;8969;48.576;12.580;2022-12-18T15:35:20;-2.60;99.90
17701;DHT22;8969;48.576;12.580;2022-12-18T15:37:49;-2.60;99.90
17701;DHT22;8969;48.576;12.580;2022-12-18T15:40:20;-2.60;99.90
17701;DHT22;8969;48.576;12.580;2022-12-18T15:42:51;-2.60;99.90
17701;DHT22;8969;48.576;12.580;2022-12-18T15:45:39;-2.80;99.90
17701;DHT22;8969;48.576;12.580;2022-12-18T15:48:21;-2.70;99.90
17701;DHT22;8969;48.576;12.580;2022-12-18T15:50:50;-2.80;99.90
17701;DHT22;8969;48.576;12.580;2022-12-18T15:53:20;-2.80;99.90
17701;DHT22;8969;48.576;12.580;2022-12-18T15:55:49;-2.80;99.90
17701;DHT22;8969;48.576;12.580;2022-12-18T15:58:35;-2.80;99.90
17701;DHT22;8969;48.576;12.580;2022-12-18T16:01:04;-2.70;99.90
17701;DHT22;8969;48.576;12.580;2022-12-18T16:03:36;-2.80;99.90
17701;DHT22;8969;48.576;12.580;2022-12-18T16:06:05;-2.70;99.90
17701;DHT22;8969;48.576;12.580;2022-12-18T16:08:33;-2.70;99.90
17701;DHT22;8969;48.576;12.580;2022-12-18T16:11:02;-2.80;99.90
17701;DHT22;8969;48.576;12.580;2022-12-18T16:13:30;-2.80;99.90